createdAt,value
2022-11-23T00:02:40.376Z,92.29
2022-11-23T00:07:41.888Z,92.61
2022-11-23T00:12:43.981Z,93.13
2022-11-23T00:17:48.234Z,93.71
2022-11-23T00:22:49.662Z,93.57
2022-11-23T00:27:51.116Z,93.06
2022-11-23T00:32:53.955Z,93.18
2022-11-23T00:37:55.377Z,93.83
2022-11-23T00:42:56.829Z,93.41
2022-11-23T00:47:58.269Z,94.06
2022-11-23T00:52:59.668Z,93.73
2022-11-23T00:58:01.181Z,94.27
2022-11-23T01:03:02.626Z,95.27
2022-11-23T01:08:05.474Z,94.62
2022-11-23T01:13:06.934Z,94.87
2022-11-23T01:18:08.400Z,94.56
2022-11-23T01:23:09.851Z,95.27
2022-11-23T01:28:11.329Z,96.56
2022-11-23T01:33:13.504Z,96.67
2022-11-23T01:38:18.205Z,95.94
2022-11-23T01:43:20.158Z,96.42
2022-11-23T01:48:39.126Z,96.48
2022-11-23T01:53:42.258Z,96.05
2022-11-23T01:58:47.860Z,94.12
2022-11-23T02:03:51.720Z,93.60
2022-11-23T02:08:53.964Z,92.59
2022-11-23T02:13:57.105Z,92.05
2022-11-23T02:18:58.555Z,91.32
2022-11-23T02:24:21.969Z,90.06
2022-11-23T02:29:25.281Z,90.61
2022-11-23T02:34:26.924Z,89.95
2022-11-23T02:39:38.374Z,89.69
2022-11-23T02:45:17.212Z,89.29
2022-11-23T02:50:18.665Z,89.64
2022-11-23T02:55:20.142Z,89.45
2022-11-23T03:00:21.784Z,89.56
2022-11-23T03:05:23.215Z,88.56
2022-11-23T03:10:27.156Z,88.29
2022-11-23T03:15:28.710Z,89.08
2022-11-23T03:20:30.120Z,89.25
2022-11-23T03:25:31.547Z,88.29
2022-11-23T03:30:33.091Z,89.58
2022-11-23T03:35:34.536Z,90.33
2022-11-23T03:40:35.959Z,90.29
2022-11-23T03:45:37.398Z,90.36
2022-11-23T03:50:38.796Z,90.41
2022-11-23T03:55:40.300Z,90.65
2022-11-23T04:00:41.812Z,91.05
2022-11-23T04:05:43.525Z,90.63
2022-11-23T04:10:44.990Z,90.52
2022-11-23T04:15:46.414Z,90.67
2022-11-23T04:20:47.860Z,90.96
2022-11-23T04:25:49.308Z,91.49
2022-11-23T04:30:50.750Z,91.75
2022-11-23T04:35:52.227Z,91.90
2022-11-23T04:40:53.861Z,91.85
2022-11-23T04:45:55.351Z,91.86
2022-11-23T04:50:56.857Z,91.82
2022-11-23T04:55:58.340Z,91.53
2022-11-23T05:00:59.879Z,92.09
2022-11-23T05:06:05.298Z,91.94
2022-11-23T05:11:06.717Z,91.91
2022-11-23T05:16:08.278Z,92.13
2022-11-23T05:21:09.699Z,92.80
2022-11-23T05:26:11.326Z,92.09
2022-11-23T05:31:12.893Z,93.35
2022-11-23T05:36:14.399Z,93.87
2022-11-23T05:41:15.871Z,94.38
2022-11-23T05:46:17.539Z,94.82
2022-11-23T05:51:19.001Z,95.60
2022-11-23T05:56:20.426Z,96.59
2022-11-23T06:01:22.549Z,97.09
2022-11-23T06:06:24.040Z,97.49
2022-11-23T06:11:25.543Z,97.67
2022-11-23T06:16:27.078Z,98.35
2022-11-23T06:21:28.482Z,97.88
2022-11-23T06:26:30.335Z,98.98
2022-11-23T06:31:31.807Z,99.12
2022-11-23T06:36:33.244Z,99.26
2022-11-23T06:41:34.783Z,99.56
2022-11-23T06:46:36.194Z,99.15
2022-11-23T06:51:37.639Z,99.66
2022-11-23T06:56:39.078Z,99.09
2022-11-23T07:01:40.529Z,99.79
2022-11-23T07:06:42.001Z,99.45
2022-11-23T07:11:43.948Z,98.63
2022-11-23T07:16:45.346Z,98.41
2022-11-23T07:21:46.882Z,96.73
2022-11-23T07:26:48.306Z,94.17
2022-11-23T07:31:49.728Z,90.88
2022-11-23T07:36:51.139Z,89.50
2022-11-23T07:42:05.228Z,87.19
2022-11-23T07:47:13.947Z,85.59
2022-11-23T07:52:15.383Z,83.42
2022-11-23T07:57:16.929Z,79.84
2022-11-23T08:02:18.441Z,81.16
2022-11-23T08:07:19.917Z,78.31
2022-11-23T08:12:21.754Z,77.19
2022-11-23T08:17:23.240Z,75.97
2022-11-23T08:22:24.734Z,74.12
2022-11-23T08:27:26.158Z,72.08
2022-11-23T08:32:27.602Z,67.88
2022-11-23T08:37:29.091Z,64.84
2022-11-23T08:42:30.552Z,63.22
2022-11-23T08:47:32.984Z,62.53
2022-11-23T08:52:34.451Z,62.21
2022-11-23T08:57:35.898Z,61.70
2022-11-23T09:02:37.344Z,65.44
2022-11-23T09:07:39.255Z,65.13
2022-11-23T09:12:40.727Z,65.47
2022-11-23T09:17:42.456Z,62.26
2022-11-23T09:22:44.190Z,61.44
2022-11-23T09:27:45.770Z,56.42
2022-11-23T09:32:47.152Z,53.71
2022-11-23T09:37:48.538Z,51.29
2022-11-23T09:42:55.715Z,48.99
2022-11-23T09:48:19.213Z,46.00
2022-11-23T09:53:36.421Z,49.00
2022-11-23T09:58:41.100Z,49.85
2022-11-23T10:03:48.745Z,47.27
2022-11-23T10:09:17.024Z,44.35
2022-11-23T10:14:39.711Z,43.78
2022-11-23T10:19:50.043Z,43.54
2022-11-23T10:24:52.397Z,42.33
2022-11-23T10:29:54.435Z,44.26
2022-11-23T10:35:11.360Z,43.17
2022-11-23T10:40:23.699Z,43.79
2022-11-23T10:45:28.011Z,42.28
2022-11-23T10:50:33.790Z,42.08
2022-11-23T10:55:58.161Z,41.80
2022-11-23T11:01:01.930Z,41.86
2022-11-23T11:06:11.532Z,41.38
2022-11-23T11:11:28.749Z,40.72
2022-11-23T11:16:34.926Z,41.37
2022-11-23T11:21:41.776Z,39.80
2022-11-23T11:26:52.599Z,38.62
2022-11-23T11:32:03.527Z,38.64
2022-11-23T11:37:16.975Z,36.85
2022-11-23T11:42:22.931Z,38.95
2022-11-23T11:47:24.329Z,40.92
2022-11-23T11:52:33.209Z,42.39
2022-11-23T11:57:47.495Z,45.01
2022-11-23T12:02:51.581Z,45.66
2022-11-23T12:07:55.959Z,45.02
2022-11-23T12:12:57.473Z,46.88
2022-11-23T12:18:24.262Z,47.56
2022-11-23T12:23:50.444Z,47.68
2022-11-23T12:29:03.192Z,48.79
2022-11-23T12:34:34.213Z,48.37
2022-11-23T12:40:04.546Z,49.30
2022-11-23T12:45:17.172Z,50.18
2022-11-23T12:50:25.775Z,51.06
2022-11-23T12:55:49.125Z,52.04
2022-11-23T13:01:00.838Z,51.46
2022-11-23T13:06:05.295Z,52.43
2022-11-23T13:11:25.115Z,51.62
2022-11-23T13:16:33.847Z,52.00
2022-11-23T13:21:40.170Z,52.33
2022-11-23T13:26:41.714Z,52.80
2022-11-23T13:31:43.307Z,53.27
2022-11-23T13:37:15.123Z,53.67
2022-11-23T13:42:17.360Z,53.87
2022-11-23T13:47:20.203Z,54.11
2022-11-23T13:52:21.759Z,55.20
2022-11-23T13:57:23.859Z,54.91
2022-11-23T14:02:25.281Z,54.75
2022-11-23T14:07:37.950Z,54.78
2022-11-23T14:13:01.054Z,55.00
2022-11-23T14:18:30.195Z,55.38
2022-11-23T14:23:53.120Z,56.04
2022-11-23T14:29:00.862Z,56.87
2022-11-23T14:34:45.401Z,56.98
2022-11-23T14:40:09.115Z,57.86
2022-11-23T14:45:15.389Z,58.31
2022-11-23T14:50:26.110Z,58.77
2022-11-23T14:55:29.888Z,58.90
2022-11-23T15:00:37.206Z,59.36
2022-11-23T15:05:39.892Z,59.50
2022-11-23T15:11:12.400Z,60.50
2022-11-23T15:16:16.350Z,61.75
2022-11-23T15:21:28.242Z,62.35
2022-11-23T15:27:01.223Z,63.47
2022-11-23T15:32:14.089Z,62.60
2022-11-23T15:37:14.795Z,62.04
2022-11-23T15:42:19.914Z,63.02
2022-11-23T15:47:30.971Z,63.61
2022-11-23T15:52:38.361Z,63.83
2022-11-23T15:57:40.564Z,63.63
2022-11-23T16:02:43.021Z,64.72
2022-11-23T16:07:57.699Z,65.29
2022-11-23T16:13:01.597Z,64.78
2022-11-23T16:18:17.582Z,66.63
2022-11-23T16:23:31.019Z,69.71
2022-11-23T16:28:34.641Z,69.46
2022-11-23T16:33:36.313Z,70.98
2022-11-23T16:38:37.763Z,71.47
2022-11-23T16:43:39.243Z,72.22
2022-11-23T16:48:42.351Z,73.35
2022-11-23T16:59:15.586Z,75.95
2022-11-23T17:04:17.271Z,76.99
2022-11-23T17:09:18.680Z,77.94
2022-11-23T17:14:23.068Z,79.07
2022-11-23T17:19:29.825Z,80.33
2022-11-23T17:24:31.997Z,81.62
2022-11-23T17:29:37.716Z,82.55
2022-11-23T17:34:41.956Z,84.52
2022-11-23T17:39:43.460Z,85.28
2022-11-23T17:44:44.992Z,85.60
2022-11-23T17:49:46.435Z,86.12
2022-11-23T17:54:47.915Z,86.71
2022-11-23T17:59:50.394Z,87.45
2022-11-23T18:04:51.894Z,88.15
2022-11-23T18:09:53.451Z,88.77
2022-11-23T18:14:55.083Z,88.88
2022-11-23T18:19:56.561Z,89.45
2022-11-23T18:24:57.994Z,89.62
2022-11-23T18:29:59.431Z,90.78
2022-11-23T18:35:00.910Z,92.62
2022-11-23T18:40:02.661Z,93.35
2022-11-23T18:45:04.581Z,95.76
2022-11-23T18:50:06.985Z,97.52
2022-11-23T18:55:08.533Z,98.04
2022-11-23T19:00:12.461Z,97.35
2022-11-23T19:05:13.905Z,97.50
2022-11-23T19:10:16.075Z,97.62
2022-11-23T19:15:17.569Z,98.19
2022-11-23T19:20:20.509Z,98.83
2022-11-23T19:25:22.017Z,99.26
2022-11-23T19:30:23.626Z,99.49
2022-11-23T19:35:25.075Z,99.13
2022-11-23T19:40:26.564Z,99.98
2022-11-23T19:45:28.020Z,99.39
2022-11-23T19:50:29.587Z,99.85
2022-11-23T19:55:34.376Z,100.00
2022-11-23T20:00:36.976Z,100.00
2022-11-23T20:05:39.233Z,99.35
2022-11-23T20:10:40.741Z,99.41
2022-11-23T20:15:43.971Z,99.24
2022-11-23T20:20:48.127Z,99.08
2022-11-23T20:25:49.784Z,99.92
2022-11-23T20:30:51.894Z,99.67
2022-11-23T20:35:53.365Z,99.14
2022-11-23T20:40:54.798Z,99.27
2022-11-23T20:45:58.379Z,99.67
2022-11-23T20:50:59.778Z,100.00
2022-11-23T20:56:04.565Z,100.00
2022-11-23T21:01:13.228Z,100.00
2022-11-23T21:06:15.322Z,100.00
2022-11-23T21:11:43.130Z,100.00
2022-11-23T21:16:53.215Z,100.00
2022-11-23T21:21:55.781Z,100.00
2022-11-23T21:26:57.341Z,99.39
2022-11-23T21:31:59.306Z,99.90
2022-11-23T21:37:01.189Z,99.91
2022-11-23T21:42:03.622Z,100.00
2022-11-23T21:47:05.107Z,98.91
2022-11-23T21:52:06.674Z,98.00
2022-11-23T21:57:09.009Z,97.63
2022-11-23T22:02:12.121Z,97.08
2022-11-23T22:07:13.660Z,97.10
2022-11-23T22:12:15.144Z,96.55
2022-11-23T22:17:16.595Z,95.80
2022-11-23T22:22:18.039Z,95.78
2022-11-23T22:27:19.632Z,95.17
2022-11-23T22:32:21.061Z,93.96
2022-11-23T22:37:22.514Z,94.34
2022-11-23T22:42:23.942Z,93.59
2022-11-23T22:47:25.663Z,94.62
2022-11-23T22:52:27.123Z,94.51
2022-11-23T22:57:28.579Z,93.58
2022-11-23T23:02:30.181Z,93.64
2022-11-23T23:07:31.991Z,93.93
2022-11-23T23:12:33.472Z,93.71
2022-11-23T23:17:35.354Z,93.05
2022-11-23T23:22:36.939Z,92.49
2022-11-23T23:27:38.412Z,92.36
2022-11-23T23:32:39.960Z,91.98
2022-11-23T23:37:41.436Z,91.89
2022-11-23T23:42:42.870Z,92.33
2022-11-23T23:47:44.349Z,91.66
2022-11-23T23:52:45.775Z,91.65
2022-11-23T23:57:47.215Z,92.19
